createdAt,value
2023-05-14T00:00:47.444Z,0.00
2023-05-14T00:01:47.400Z,0.00
2023-05-14T00:02:47.458Z,0.00
2023-05-14T00:03:47.489Z,0.00
2023-05-14T00:04:47.372Z,0.00
2023-05-14T00:05:47.382Z,0.00
2023-05-14T00:06:47.330Z,0.00
2023-05-14T00:07:47.335Z,0.00
2023-05-14T00:08:47.305Z,0.00
2023-05-14T00:09:47.316Z,0.00
2023-05-14T00:10:47.302Z,0.00
2023-05-14T00:11:47.290Z,0.00
2023-05-14T00:12:47.257Z,0.00
2023-05-14T00:13:47.277Z,0.00
2023-05-14T00:14:47.257Z,0.00
2023-05-14T00:15:47.285Z,0.00
2023-05-14T00:16:47.202Z,0.00
2023-05-14T00:17:47.246Z,0.00
2023-05-14T00:18:47.235Z,0.00
2023-05-14T00:19:47.198Z,0.00
2023-05-14T00:20:47.159Z,0.00
2023-05-14T00:21:47.150Z,0.00
2023-05-14T00:22:47.128Z,0.00
2023-05-14T00:23:47.133Z,0.00
2023-05-14T00:24:47.127Z,0.00
2023-05-14T00:25:47.089Z,0.00
2023-05-14T00:26:47.079Z,0.00
2023-05-14T00:27:47.067Z,0.00
2023-05-14T00:28:47.076Z,0.00
2023-05-14T00:29:47.062Z,0.00
2023-05-14T00:30:47.024Z,0.00
2023-05-14T00:31:47.037Z,0.00
2023-05-14T00:32:47.037Z,0.00
2023-05-14T00:33:47.028Z,0.00
2023-05-14T00:34:46.974Z,0.00
2023-05-14T00:35:46.968Z,0.00
2023-05-14T00:36:46.957Z,0.00
2023-05-14T00:37:46.938Z,0.00
2023-05-14T00:38:46.939Z,0.00
2023-05-14T00:39:46.920Z,0.00
2023-05-14T00:40:46.898Z,0.00
2023-05-14T00:41:46.895Z,0.00
2023-05-14T00:42:46.891Z,0.00
2023-05-14T00:43:46.927Z,0.00
2023-05-14T00:44:46.859Z,0.00
2023-05-14T00:45:46.823Z,0.00
2023-05-14T00:46:46.876Z,0.00
2023-05-14T00:47:46.826Z,0.00
2023-05-14T00:48:46.836Z,0.00
2023-05-14T00:49:46.793Z,0.00
2023-05-14T00:50:46.772Z,0.00
2023-05-14T00:51:46.778Z,0.00
2023-05-14T00:52:46.893Z,0.00
2023-05-14T00:53:46.747Z,0.00
2023-05-14T00:54:46.726Z,0.00
2023-05-14T00:55:46.701Z,0.00
2023-05-14T00:56:46.703Z,0.00
2023-05-14T00:57:46.698Z,0.00
2023-05-14T00:58:46.670Z,0.00
2023-05-14T00:59:46.647Z,0.00
2023-05-14T01:00:46.688Z,0.00
2023-05-14T01:01:46.642Z,0.00
2023-05-14T01:02:46.713Z,0.00
2023-05-14T01:03:46.668Z,0.00
2023-05-14T01:04:46.599Z,0.00
2023-05-14T01:05:46.580Z,0.00
2023-05-14T01:06:46.603Z,0.00
2023-05-14T01:07:46.571Z,0.00
2023-05-14T01:08:46.571Z,0.00
2023-05-14T01:09:46.517Z,0.00
2023-05-14T01:10:46.531Z,0.00
2023-05-14T01:11:46.508Z,0.00
2023-05-14T01:12:46.488Z,0.00
2023-05-14T01:13:46.499Z,0.00
2023-05-14T01:14:46.466Z,0.00
2023-05-14T01:15:46.450Z,0.00
2023-05-14T01:16:46.518Z,0.00
2023-05-14T01:17:46.474Z,0.00
2023-05-14T01:18:46.439Z,0.00
2023-05-14T01:19:46.416Z,0.00
2023-05-14T01:20:46.402Z,0.00
2023-05-14T01:21:46.417Z,0.00
2023-05-14T01:22:46.367Z,0.00
2023-05-14T01:23:46.346Z,0.00
2023-05-14T01:24:46.347Z,0.00
2023-05-14T01:25:46.339Z,0.00
2023-05-14T01:26:46.326Z,0.00
2023-05-14T01:27:46.307Z,0.00
2023-05-14T01:28:46.290Z,0.00
2023-05-14T01:29:46.263Z,0.00
2023-05-14T01:30:46.282Z,0.00
2023-05-14T01:31:46.250Z,0.00
2023-05-14T01:32:46.246Z,0.00
2023-05-14T01:33:46.217Z,0.00
2023-05-14T01:34:46.245Z,0.00
2023-05-14T01:35:46.201Z,0.00
2023-05-14T01:36:46.177Z,0.00
2023-05-14T01:37:46.179Z,0.00
2023-05-14T01:38:46.152Z,0.00
2023-05-14T01:39:46.132Z,0.00
2023-05-14T01:40:46.162Z,0.00
2023-05-14T01:41:46.105Z,0.00
2023-05-14T01:42:46.108Z,0.00
2023-05-14T01:43:46.073Z,0.00
2023-05-14T01:44:46.083Z,0.00
2023-05-14T01:45:46.110Z,0.00
2023-05-14T01:46:46.056Z,0.00
2023-05-14T01:47:46.155Z,0.00
2023-05-14T01:48:46.022Z,0.00
2023-05-14T01:49:46.016Z,0.00
2023-05-14T01:50:46.007Z,0.00
2023-05-14T01:51:45.976Z,0.00
2023-05-14T01:52:45.998Z,0.00
2023-05-14T01:53:45.979Z,0.00
2023-05-14T01:54:45.963Z,0.00
2023-05-14T01:55:45.933Z,0.00
2023-05-14T01:56:45.919Z,0.00
2023-05-14T01:57:45.884Z,0.00
2023-05-14T01:58:45.919Z,0.00
2023-05-14T01:59:45.871Z,0.00
2023-05-14T02:00:45.868Z,0.00
2023-05-14T02:01:45.871Z,0.00
2023-05-14T02:02:45.879Z,0.00
2023-05-14T02:03:45.893Z,0.00
2023-05-14T02:04:45.870Z,0.00
2023-05-14T02:05:45.797Z,0.00
2023-05-14T02:06:45.785Z,0.00
2023-05-14T02:09:01.898Z,0.00
2023-05-14T02:10:02.889Z,0.00
2023-05-14T02:11:02.860Z,0.00
2023-05-14T02:12:02.860Z,0.00
2023-05-14T02:13:02.888Z,0.00
2023-05-14T02:14:02.846Z,0.00
2023-05-14T02:15:02.800Z,0.00
2023-05-14T02:16:02.879Z,0.00
2023-05-14T02:17:02.781Z,0.00
2023-05-14T02:18:02.828Z,0.00
2023-05-14T02:19:02.794Z,0.00
2023-05-14T02:20:02.745Z,0.00
2023-05-14T02:21:02.731Z,0.00
2023-05-14T02:22:02.753Z,0.00
2023-05-14T02:23:02.744Z,0.00
2023-05-14T02:24:02.690Z,0.00
2023-05-14T02:25:02.692Z,0.00
2023-05-14T02:26:02.672Z,0.00
2023-05-14T02:27:02.671Z,0.00
2023-05-14T02:28:02.662Z,0.00
2023-05-14T02:29:02.628Z,0.00
2023-05-14T02:30:02.613Z,0.00
2023-05-14T02:31:02.637Z,0.00
2023-05-14T02:32:02.610Z,0.00
2023-05-14T02:33:02.708Z,0.00
2023-05-14T02:34:02.566Z,0.00
2023-05-14T02:35:02.551Z,0.00
2023-05-14T02:36:02.558Z,0.00
2023-05-14T02:37:02.554Z,0.00
2023-05-14T02:38:02.516Z,0.00
2023-05-14T02:39:02.504Z,0.00
2023-05-14T02:40:02.515Z,0.00
2023-05-14T02:41:02.472Z,0.00
2023-05-14T02:42:02.485Z,0.00
2023-05-14T02:43:02.449Z,0.00
2023-05-14T02:44:02.439Z,0.00
2023-05-14T02:45:02.430Z,0.00
2023-05-14T02:46:02.433Z,0.00
2023-05-14T02:47:02.460Z,0.00
2023-05-14T02:48:02.432Z,0.00
2023-05-14T02:49:02.380Z,0.00
2023-05-14T02:50:02.378Z,0.00
2023-05-14T02:51:02.354Z,0.00
2023-05-14T02:52:02.480Z,0.00
2023-05-14T02:53:02.323Z,0.00
2023-05-14T02:54:02.305Z,0.00
2023-05-14T02:55:02.299Z,0.00
2023-05-14T02:56:02.285Z,0.00
2023-05-14T02:57:02.299Z,0.00
2023-05-14T02:58:02.259Z,0.00
2023-05-14T02:59:02.261Z,0.00
2023-05-14T03:00:02.282Z,0.00
2023-05-14T03:01:02.286Z,0.00
2023-05-14T03:02:02.248Z,0.00
2023-05-14T03:03:02.235Z,0.00
2023-05-14T03:04:02.185Z,0.00
2023-05-14T03:05:02.214Z,0.00
2023-05-14T03:06:02.184Z,0.00
2023-05-14T03:07:02.165Z,0.00
2023-05-14T03:08:02.138Z,0.00
2023-05-14T03:09:02.120Z,0.00
2023-05-14T03:10:02.117Z,0.00
2023-05-14T03:11:02.067Z,1.00
2023-05-14T03:12:02.036Z,1.00
2023-05-14T03:13:02.014Z,1.00
2023-05-14T03:14:01.994Z,1.00
2023-05-14T03:15:01.992Z,1.00
2023-05-14T03:16:02.002Z,2.00
2023-05-14T03:17:02.060Z,2.00
2023-05-14T03:18:01.967Z,2.00
2023-05-14T03:19:02.004Z,2.00
2023-05-14T03:20:01.976Z,3.00
2023-05-14T03:21:01.930Z,3.00
2023-05-14T03:22:01.908Z,4.00
2023-05-14T03:23:01.881Z,3.00
2023-05-14T03:24:01.895Z,2.00
2023-05-14T03:25:01.872Z,5.00
2023-05-14T03:26:01.848Z,5.00
2023-05-14T03:27:01.820Z,9.00
2023-05-14T03:28:01.822Z,8.00
2023-05-14T03:29:01.799Z,7.00
2023-05-14T03:30:01.831Z,9.00
2023-05-14T03:31:01.838Z,10.00
2023-05-14T03:32:01.772Z,13.00
2023-05-14T03:33:01.777Z,15.00
2023-05-14T03:34:01.772Z,20.00
2023-05-14T03:35:01.728Z,20.00
2023-05-14T03:36:01.731Z,24.00
2023-05-14T03:37:01.707Z,28.00
2023-05-14T03:38:01.715Z,34.00
2023-05-14T03:39:01.697Z,35.00
2023-05-14T03:40:01.667Z,40.00
2023-05-14T03:41:01.639Z,45.00
2023-05-14T03:42:01.646Z,51.00
2023-05-14T03:43:01.622Z,57.00
2023-05-14T03:44:01.634Z,61.00
2023-05-14T03:45:01.601Z,72.00
2023-05-14T03:46:01.590Z,82.00
2023-05-14T03:47:01.589Z,90.00
2023-05-14T03:48:01.628Z,97.00
2023-05-14T03:49:01.684Z,111.00
2023-05-14T03:50:01.526Z,127.00
2023-05-14T03:51:01.522Z,141.00
2023-05-14T03:52:01.508Z,151.00
2023-05-14T03:53:01.516Z,168.00
2023-05-14T03:54:01.523Z,183.00
2023-05-14T03:55:01.468Z,190.00
2023-05-14T03:56:01.452Z,212.00
2023-05-14T03:57:01.447Z,231.00
2023-05-14T03:58:01.449Z,251.00
2023-05-14T03:59:01.436Z,269.00
2023-05-14T04:00:01.428Z,287.00
2023-05-14T04:01:01.397Z,309.00
2023-05-14T04:02:01.399Z,329.00
2023-05-14T04:03:01.403Z,351.00
2023-05-14T04:04:01.494Z,373.00
2023-05-14T04:05:01.341Z,397.00
2023-05-14T04:06:01.322Z,419.00
2023-05-14T04:07:01.337Z,443.00
2023-05-14T04:08:01.320Z,467.00
2023-05-14T04:09:01.293Z,492.00
2023-05-14T04:10:03.448Z,526.00
2023-05-14T04:11:01.281Z,549.00
2023-05-14T04:12:01.266Z,576.00
2023-05-14T04:13:01.252Z,602.00
2023-05-14T04:14:01.242Z,634.00
2023-05-14T04:15:01.245Z,661.00
2023-05-14T04:16:01.270Z,691.00
2023-05-14T04:17:01.206Z,723.00
2023-05-14T04:18:01.258Z,749.00
2023-05-14T04:19:01.173Z,787.00
2023-05-14T04:20:01.154Z,816.00
2023-05-14T04:21:01.159Z,847.00
2023-05-14T04:22:01.157Z,880.00
2023-05-14T04:23:01.115Z,914.00
2023-05-14T04:24:01.101Z,939.00
2023-05-14T04:25:01.084Z,969.00
2023-05-14T04:26:01.099Z,1003.00
2023-05-14T04:27:01.057Z,1036.00
2023-05-14T04:28:01.051Z,1066.00
2023-05-14T04:29:01.029Z,1099.00
2023-05-14T04:30:01.038Z,1130.00
2023-05-14T04:31:01.022Z,1162.00
2023-05-14T04:32:01.158Z,1197.00
2023-05-14T04:33:01.003Z,1225.00
2023-05-14T04:34:00.958Z,1261.00
2023-05-14T04:35:00.995Z,1297.00
2023-05-14T04:36:00.953Z,1325.00
2023-05-14T04:37:00.935Z,1360.00
2023-05-14T04:38:00.913Z,1384.00
2023-05-14T04:39:00.911Z,1410.00
2023-05-14T04:40:00.937Z,1433.00
2023-05-14T04:41:00.899Z,1456.00
2023-05-14T04:42:00.864Z,1482.00
2023-05-14T04:43:00.849Z,1506.00
2023-05-14T04:44:00.837Z,1527.00
2023-05-14T04:45:00.842Z,1555.00
2023-05-14T04:46:00.813Z,1581.00
2023-05-14T04:47:00.796Z,1605.00
2023-05-14T04:48:00.843Z,1631.00
2023-05-14T04:49:00.790Z,1653.00
2023-05-14T04:50:00.775Z,1673.00
2023-05-14T04:51:00.745Z,1695.00
2023-05-14T04:52:00.735Z,1713.00
2023-05-14T04:53:00.726Z,1734.00
2023-05-14T04:54:00.765Z,1757.00
2023-05-14T04:55:00.711Z,1776.00
2023-05-14T04:56:00.676Z,1801.00
2023-05-14T04:57:00.665Z,1822.00
2023-05-14T04:58:00.648Z,1843.00
2023-05-14T04:59:00.873Z,1866.00
2023-05-14T05:00:00.616Z,1884.00
2023-05-14T05:01:00.675Z,1905.00
2023-05-14T05:02:00.600Z,1932.00
2023-05-14T05:03:00.756Z,1965.00
2023-05-14T05:04:00.698Z,1999.00
2023-05-14T05:05:00.645Z,2022.00
2023-05-14T05:06:00.546Z,2043.00
2023-05-14T05:07:00.596Z,2065.00
2023-05-14T05:08:00.572Z,2087.00
2023-05-14T05:09:01.998Z,2108.00
2023-05-14T05:10:00.662Z,2130.00
2023-05-14T05:11:00.498Z,2157.00
2023-05-14T05:12:00.525Z,2180.00
2023-05-14T05:13:00.539Z,2208.00
2023-05-14T05:14:00.581Z,2233.00
2023-05-14T05:15:00.438Z,2258.00
2023-05-14T05:16:00.503Z,2279.00
2023-05-14T05:17:00.420Z,2303.00
2023-05-14T05:18:00.436Z,2325.00
2023-05-14T05:19:00.460Z,2354.00
2023-05-14T05:20:00.382Z,2377.00
2023-05-14T05:21:00.374Z,2400.00
2023-05-14T05:22:00.341Z,2422.00
2023-05-14T05:23:00.348Z,2441.00
2023-05-14T05:24:00.336Z,2458.00
2023-05-14T05:25:00.330Z,2479.00
2023-05-14T05:26:00.300Z,2501.00
2023-05-14T05:27:00.285Z,2527.00
2023-05-14T05:28:00.312Z,2548.00
2023-05-14T05:29:00.282Z,2559.00
2023-05-14T05:30:00.250Z,2589.00
2023-05-14T05:31:00.325Z,2610.00
2023-05-14T05:32:00.216Z,2625.00
2023-05-14T05:33:00.249Z,2639.00
2023-05-14T05:34:00.184Z,2659.00
2023-05-14T05:35:00.183Z,2673.00
2023-05-14T05:36:00.161Z,2674.00
2023-05-14T05:37:00.152Z,2680.00
2023-05-14T05:38:01.626Z,2693.00
2023-05-14T05:39:00.142Z,2704.00
2023-05-14T05:40:00.110Z,2711.00
2023-05-14T05:41:00.131Z,2722.00
2023-05-14T05:42:00.105Z,2732.00
2023-05-14T05:43:00.116Z,2746.00
2023-05-14T05:44:00.100Z,2762.00
2023-05-14T05:45:00.056Z,2766.00
2023-05-14T05:46:00.126Z,2781.00
2023-05-14T05:47:00.545Z,2786.00
2023-05-14T05:48:01.985Z,2788.00
2023-05-14T05:49:05.015Z,2798.00
2023-05-14T05:49:59.976Z,2803.00
2023-05-14T05:50:59.992Z,2817.00
2023-05-14T05:51:59.968Z,2827.00
2023-05-14T05:52:59.945Z,2832.00
2023-05-14T05:53:59.928Z,2845.00
2023-05-14T05:54:59.925Z,2855.00
2023-05-14T05:55:59.905Z,2873.00
2023-05-14T05:56:59.908Z,2888.00
2023-05-14T05:57:59.884Z,2892.00
2023-05-14T05:58:59.869Z,2905.00
2023-05-14T05:59:59.852Z,2921.00
2023-05-14T06:00:59.872Z,2932.00
2023-05-14T06:01:59.858Z,2942.00
2023-05-14T06:02:59.832Z,2948.00
2023-05-14T06:03:59.800Z,2969.00
2023-05-14T06:04:59.821Z,2971.00
2023-05-14T06:05:59.800Z,2979.00
2023-05-14T06:06:59.762Z,2988.00
2023-05-14T06:07:59.747Z,2993.00
2023-05-14T06:08:59.732Z,3013.00
2023-05-14T06:09:59.752Z,3016.00
2023-05-14T06:10:59.735Z,3026.00
2023-05-14T06:11:59.691Z,3047.00
2023-05-14T06:12:59.683Z,3052.00
2023-05-14T06:13:59.665Z,3054.00
2023-05-14T06:14:59.676Z,3059.00
2023-05-14T06:15:59.688Z,3071.00
2023-05-14T06:16:59.660Z,3067.00
2023-05-14T06:17:59.662Z,3086.00
2023-05-14T06:18:59.658Z,3078.00
2023-05-14T06:19:59.603Z,3089.00
2023-05-14T06:20:59.601Z,3103.00
2023-05-14T06:21:59.561Z,3108.00
2023-05-14T06:22:59.548Z,3114.00
2023-05-14T06:23:59.534Z,3117.00
2023-05-14T06:24:59.588Z,3138.00
2023-05-14T06:25:59.542Z,3147.00
2023-05-14T06:26:59.502Z,3158.00
2023-05-14T06:27:59.479Z,3167.00
2023-05-14T06:28:59.480Z,3196.00
2023-05-14T06:29:59.467Z,3217.00
2023-05-14T06:30:59.440Z,3218.00
2023-05-14T06:31:59.502Z,3222.00
2023-05-14T06:32:59.462Z,3228.00
2023-05-14T06:33:59.404Z,3233.00
2023-05-14T06:34:59.429Z,3257.00
2023-05-14T06:35:59.377Z,3259.00
2023-05-14T06:36:59.369Z,3261.00
2023-05-14T06:37:59.360Z,3274.00
2023-05-14T06:38:59.359Z,3283.00
2023-05-14T06:39:59.326Z,3295.00
2023-05-14T06:40:59.314Z,3325.00
2023-05-14T06:41:59.295Z,3271.00
2023-05-14T06:42:59.282Z,3243.00
2023-05-14T06:43:59.282Z,3284.00
2023-05-14T06:44:59.258Z,3331.00
2023-05-14T06:45:59.246Z,3349.00
2023-05-14T06:46:59.248Z,3355.00
2023-05-14T06:47:59.338Z,3375.00
2023-05-14T06:48:59.708Z,3396.00
2023-05-14T06:49:59.216Z,3399.00
2023-05-14T06:50:59.189Z,3406.00
2023-05-14T06:51:59.169Z,3417.00
2023-05-14T06:52:59.186Z,3437.00
2023-05-14T06:53:59.192Z,3440.00
2023-05-14T06:54:59.132Z,3461.00
2023-05-14T06:55:59.121Z,3471.00
2023-05-14T06:56:59.110Z,3483.00
2023-05-14T06:57:59.089Z,3493.00
2023-05-14T06:58:59.102Z,3509.00
2023-05-14T06:59:59.059Z,3519.00
2023-05-14T07:00:59.048Z,3533.00
2023-05-14T07:01:59.049Z,3536.00
2023-05-14T07:02:59.094Z,3547.00
2023-05-14T07:03:59.049Z,3562.00
2023-05-14T07:04:59.006Z,3569.00
2023-05-14T07:05:58.988Z,3590.00
2023-05-14T07:06:58.990Z,3596.00
2023-05-14T07:07:58.990Z,3619.00
2023-05-14T07:08:58.949Z,3619.00
2023-05-14T07:09:58.938Z,3629.00
2023-05-14T07:10:58.925Z,3642.00
2023-05-14T07:11:58.911Z,3661.00
2023-05-14T07:12:58.911Z,3677.00
2023-05-14T07:13:58.877Z,3684.00
2023-05-14T07:14:58.857Z,3689.00
2023-05-14T07:15:58.851Z,3705.00
2023-05-14T07:16:58.905Z,3725.00
2023-05-14T07:17:58.866Z,3726.00
2023-05-14T07:18:58.840Z,3736.00
2023-05-14T07:19:58.803Z,3744.00
2023-05-14T07:20:58.792Z,3781.00
2023-05-14T07:21:58.835Z,3793.00
2023-05-14T07:22:58.764Z,3816.00
2023-05-14T07:23:58.753Z,3831.00
2023-05-14T07:24:58.738Z,3838.00
2023-05-14T07:25:58.731Z,3849.00
2023-05-14T07:26:58.747Z,3845.00
2023-05-14T07:27:58.686Z,3854.00
2023-05-14T07:28:58.697Z,3858.00
2023-05-14T07:29:58.680Z,3862.00
2023-05-14T07:30:58.715Z,3862.00
2023-05-14T07:31:58.641Z,3890.00
2023-05-14T07:32:58.676Z,3874.00
2023-05-14T07:33:58.616Z,3892.00
2023-05-14T07:34:58.613Z,3917.00
2023-05-14T07:35:58.629Z,3972.00
2023-05-14T07:36:58.579Z,3977.00
2023-05-14T07:37:58.567Z,3998.00
2023-05-14T07:38:58.566Z,3993.00
2023-05-14T07:39:58.561Z,4040.00
2023-05-14T07:40:58.549Z,3999.00
2023-05-14T07:41:58.512Z,4107.00
2023-05-14T07:42:58.504Z,3879.00
2023-05-14T07:43:58.485Z,3937.00
2023-05-14T07:44:58.498Z,3964.00
2023-05-14T07:45:58.477Z,4044.00
2023-05-14T07:46:58.492Z,4095.00
2023-05-14T07:47:58.659Z,4098.00
2023-05-14T07:48:58.430Z,4089.00
2023-05-14T07:49:58.404Z,4121.00
2023-05-14T07:50:58.418Z,4221.00
2023-05-14T07:51:58.384Z,4280.00
2023-05-14T07:52:58.376Z,4428.00
2023-05-14T07:53:58.354Z,4431.00
2023-05-14T07:54:58.352Z,4288.00
2023-05-14T07:55:58.353Z,4204.00
2023-05-14T07:56:58.321Z,4251.00
2023-05-14T07:57:58.302Z,4440.00
2023-05-14T07:58:58.304Z,4464.00
2023-05-14T07:59:58.284Z,4418.00
2023-05-14T08:00:58.287Z,4575.00
2023-05-14T08:01:58.354Z,4603.00
2023-05-14T08:02:58.379Z,4545.00
2023-05-14T08:03:58.331Z,4659.00
2023-05-14T08:04:58.214Z,4755.00
2023-05-14T08:05:58.225Z,4837.00
2023-05-14T08:06:58.177Z,4564.00
2023-05-14T08:07:58.183Z,4491.00
2023-05-14T08:08:58.172Z,4388.00
2023-05-14T08:09:58.151Z,4395.00
2023-05-14T08:12:14.244Z,4016.00
2023-05-14T08:13:15.193Z,1349.00
2023-05-14T08:14:15.184Z,5566.00
2023-05-14T08:15:15.204Z,1136.00
2023-05-14T08:16:15.180Z,5687.00
2023-05-14T08:17:15.219Z,1343.00
2023-05-14T08:18:15.153Z,5020.00
2023-05-14T08:19:15.174Z,4801.00
2023-05-14T08:20:15.119Z,4748.00
2023-05-14T08:21:15.087Z,4835.00
2023-05-14T08:22:15.084Z,4947.00
2023-05-14T08:23:15.116Z,5011.00
2023-05-14T08:24:15.118Z,4927.00
2023-05-14T08:25:15.060Z,4880.00
2023-05-14T08:26:15.039Z,5092.00
2023-05-14T08:27:15.040Z,5384.00
2023-05-14T08:28:15.059Z,5129.00
2023-05-14T08:29:16.598Z,4859.00
2023-05-14T08:30:15.050Z,4870.00
2023-05-14T08:31:15.067Z,5141.00
2023-05-14T08:32:22.899Z,5552.00
2023-05-14T08:33:14.974Z,5453.00
2023-05-14T08:34:14.958Z,5144.00
2023-05-14T08:35:14.923Z,5038.00
2023-05-14T08:36:14.898Z,5125.00
2023-05-14T08:37:14.956Z,5260.00
2023-05-14T08:38:14.943Z,5181.00
2023-05-14T08:39:14.978Z,5024.00
2023-05-14T08:40:14.880Z,5201.00
2023-05-14T08:41:14.836Z,5286.00
2023-05-14T08:42:14.843Z,5025.00
2023-05-14T08:43:14.833Z,5129.00
2023-05-14T08:44:14.923Z,5334.00
2023-05-14T08:45:14.812Z,5280.00
2023-05-14T08:46:14.953Z,5118.00
2023-05-14T08:47:14.767Z,5316.00
2023-05-14T08:48:14.918Z,5263.00
2023-05-14T08:49:14.827Z,5080.00
2023-05-14T08:50:14.733Z,6578.00
2023-05-14T08:51:14.731Z,3382.00
2023-05-14T08:52:14.953Z,5263.00
2023-05-14T08:53:14.703Z,5133.00
2023-05-14T08:54:14.709Z,5164.00
2023-05-14T08:55:14.660Z,5115.00
2023-05-14T08:56:14.637Z,5561.00
2023-05-14T08:57:14.695Z,5686.00
2023-05-14T08:58:14.630Z,6013.00
2023-05-14T08:59:14.598Z,8810.00
2023-05-14T09:00:14.647Z,1964.00
2023-05-14T09:01:14.642Z,5249.00
2023-05-14T09:02:14.627Z,3814.00
2023-05-14T09:03:14.591Z,10419.00
2023-05-14T09:04:14.577Z,10748.00
2023-05-14T09:05:14.627Z,11396.00
2023-05-14T09:06:14.526Z,11282.00
2023-05-14T09:07:14.541Z,13850.00
2023-05-14T09:08:14.488Z,10457.00
2023-05-14T09:09:14.501Z,11789.00
2023-05-14T09:10:14.500Z,9107.00
2023-05-14T09:11:14.433Z,6607.00
2023-05-14T09:12:14.516Z,7339.00
2023-05-14T09:13:14.422Z,7179.00
2023-05-14T09:14:14.480Z,6496.00
2023-05-14T09:15:14.440Z,7021.00
2023-05-14T09:16:14.413Z,6329.00
2023-05-14T09:17:14.395Z,9039.00
2023-05-14T09:18:14.396Z,7786.00
2023-05-14T09:19:14.443Z,7760.00
2023-05-14T09:20:14.332Z,7534.00
2023-05-14T09:21:14.300Z,6556.00
2023-05-14T09:22:14.327Z,3148.00
2023-05-14T09:23:14.295Z,16091.00
2023-05-14T09:24:14.312Z,9466.00
2023-05-14T09:25:14.353Z,7225.00
2023-05-14T09:26:14.302Z,5345.00
2023-05-14T09:27:14.237Z,5996.00
2023-05-14T09:28:14.237Z,8747.00
2023-05-14T09:29:14.210Z,7078.00
2023-05-14T09:30:14.240Z,2444.00
2023-05-14T09:31:14.206Z,6724.00
2023-05-14T09:32:14.186Z,14300.00
2023-05-14T09:33:14.153Z,6977.00
2023-05-14T09:34:14.149Z,5987.00
2023-05-14T09:35:14.317Z,2707.00
2023-05-14T09:36:14.169Z,15200.00
2023-05-14T09:37:14.109Z,8674.00
2023-05-14T09:38:14.091Z,4630.00
2023-05-14T09:39:14.077Z,8422.00
2023-05-14T09:40:14.115Z,5584.00
2023-05-14T09:41:14.047Z,7792.00
2023-05-14T09:42:14.046Z,2347.00
2023-05-14T09:43:14.029Z,11581.00
2023-05-14T09:44:14.107Z,11507.00
2023-05-14T09:45:14.028Z,11418.00
2023-05-14T09:46:14.041Z,11138.00
2023-05-14T09:47:13.987Z,11789.00
2023-05-14T09:48:14.015Z,11312.00
2023-05-14T09:49:13.958Z,11614.00
2023-05-14T09:50:13.974Z,11513.00
2023-05-14T09:51:13.932Z,11737.00
2023-05-14T09:52:13.915Z,11753.00
2023-05-14T09:53:13.947Z,11829.00
2023-05-14T09:54:13.893Z,12034.00
2023-05-14T09:55:13.883Z,11848.00
2023-05-14T09:56:13.861Z,11884.00
2023-05-14T09:57:13.837Z,11897.00
2023-05-14T09:58:13.842Z,12418.00
2023-05-14T09:59:13.826Z,12296.00
2023-05-14T10:00:13.814Z,12149.00
2023-05-14T10:01:13.814Z,12306.00
2023-05-14T10:02:13.789Z,14299.00
2023-05-14T10:03:13.839Z,9036.00
2023-05-14T10:04:13.795Z,13435.00
2023-05-14T10:05:13.751Z,16278.00
2023-05-14T10:06:13.752Z,4538.00
2023-05-14T10:07:13.732Z,14698.00
2023-05-14T10:08:13.767Z,8881.00
2023-05-14T10:09:13.794Z,9091.00
2023-05-14T10:10:13.730Z,9204.00
2023-05-14T10:11:13.666Z,8618.00
2023-05-14T10:12:13.715Z,7264.00
2023-05-14T10:13:13.724Z,3225.00
2023-05-14T10:14:13.681Z,16792.00
2023-05-14T10:15:13.624Z,5291.00
2023-05-14T10:16:13.617Z,12952.00
2023-05-14T10:17:13.661Z,12848.00
2023-05-14T10:18:13.798Z,12507.00
2023-05-14T10:19:13.635Z,15684.00
2023-05-14T10:20:13.623Z,12900.00
2023-05-14T10:21:13.534Z,8167.00
2023-05-14T10:22:13.571Z,11884.00
2023-05-14T10:23:13.503Z,12555.00
2023-05-14T10:24:13.505Z,14009.00
2023-05-14T10:25:13.562Z,17296.00
2023-05-14T10:26:13.463Z,4607.00
2023-05-14T10:27:13.514Z,13743.00
2023-05-14T10:28:13.443Z,11640.00
2023-05-14T10:29:13.451Z,15522.00
2023-05-14T10:30:13.418Z,3221.00
2023-05-14T10:31:13.450Z,16322.00
2023-05-14T10:32:13.435Z,6242.00
2023-05-14T10:33:13.467Z,11754.00
2023-05-14T10:34:13.363Z,10623.00
2023-05-14T10:35:13.368Z,11700.00
2023-05-14T10:36:13.361Z,12261.00
2023-05-14T10:37:13.335Z,11067.00
2023-05-14T10:38:13.378Z,12267.00
2023-05-14T10:39:13.314Z,11338.00
2023-05-14T10:40:13.291Z,14133.00
2023-05-14T10:41:13.292Z,10093.00
2023-05-14T10:42:13.288Z,12646.00
2023-05-14T10:43:13.252Z,10820.00
2023-05-14T10:44:13.250Z,11851.00
2023-05-14T10:45:13.293Z,12593.00
2023-05-14T10:46:13.284Z,12365.00
2023-05-14T10:47:13.203Z,9153.00
2023-05-14T10:48:13.232Z,11994.00
2023-05-14T10:49:13.188Z,11358.00
2023-05-14T10:50:13.188Z,10994.00
2023-05-14T10:51:13.398Z,10949.00
2023-05-14T10:52:13.139Z,10518.00
2023-05-14T10:53:13.130Z,10161.00
2023-05-14T10:54:13.141Z,9581.00
2023-05-14T10:55:13.175Z,11657.00
2023-05-14T10:56:13.113Z,13447.00
2023-05-14T10:57:13.106Z,13051.00
2023-05-14T10:58:13.101Z,11758.00
2023-05-14T10:59:13.055Z,13058.00
2023-05-14T11:00:13.068Z,15090.00
2023-05-14T11:01:13.129Z,13231.00
2023-05-14T11:02:13.089Z,16384.00
2023-05-14T11:03:13.021Z,7967.00
2023-05-14T11:04:13.109Z,3956.00
2023-05-14T11:05:12.994Z,10601.00
2023-05-14T11:06:13.089Z,12725.00
2023-05-14T11:07:12.968Z,15170.00
2023-05-14T11:08:13.683Z,14179.00
2023-05-14T11:09:12.979Z,13432.00
2023-05-14T11:10:12.976Z,14176.00
2023-05-14T11:11:12.891Z,13391.00
2023-05-14T11:12:12.904Z,12747.00
2023-05-14T11:13:12.877Z,10449.00
2023-05-14T11:14:13.035Z,13309.00
2023-05-14T11:15:12.880Z,11275.00
2023-05-14T11:16:22.792Z,14384.00
2023-05-14T11:17:12.865Z,13856.00
2023-05-14T11:18:12.922Z,14045.00
2023-05-14T11:19:12.912Z,12421.00
2023-05-14T11:20:12.820Z,12598.00
2023-05-14T11:21:12.820Z,11729.00
2023-05-14T11:22:12.814Z,13433.00
2023-05-14T11:23:12.755Z,7924.00
2023-05-14T11:24:12.761Z,8623.00
2023-05-14T11:25:12.758Z,12398.00
2023-05-14T11:26:12.785Z,13003.00
2023-05-14T11:27:12.715Z,9033.00
2023-05-14T11:28:12.698Z,10708.00
2023-05-14T11:29:12.742Z,15781.00
2023-05-14T11:30:12.698Z,16140.00
2023-05-14T11:31:12.674Z,16504.00
2023-05-14T11:32:12.698Z,15013.00
2023-05-14T11:33:12.689Z,15962.00
2023-05-14T11:34:12.611Z,11564.00
2023-05-14T11:35:12.592Z,16764.00
2023-05-14T11:36:12.652Z,11553.00
2023-05-14T11:37:12.561Z,13885.00
2023-05-14T11:38:12.582Z,11414.00
2023-05-14T11:39:12.604Z,16375.00
2023-05-14T11:40:12.524Z,14018.00
2023-05-14T11:41:12.545Z,13779.00
2023-05-14T11:42:12.525Z,13912.00
2023-05-14T11:43:12.525Z,6916.00
2023-05-14T11:44:12.489Z,15265.00
2023-05-14T11:45:12.459Z,18358.00
2023-05-14T11:46:12.519Z,21509.00
2023-05-14T11:47:12.471Z,12356.00
2023-05-14T11:48:12.476Z,10980.00
2023-05-14T11:49:12.422Z,5706.00
2023-05-14T11:50:12.424Z,13429.00
2023-05-14T11:51:12.386Z,18314.00
2023-05-14T11:52:12.434Z,12873.00
2023-05-14T11:53:12.352Z,8616.00
2023-05-14T11:54:12.361Z,7885.00
2023-05-14T11:55:12.352Z,7624.00
2023-05-14T11:56:12.334Z,3218.00
2023-05-14T11:57:12.334Z,17585.00
2023-05-14T11:58:12.325Z,11836.00
2023-05-14T11:59:12.282Z,3653.00
2023-05-14T12:00:12.277Z,17923.00
2023-05-14T12:01:12.278Z,17545.00
2023-05-14T12:02:12.320Z,7592.00
2023-05-14T12:03:12.411Z,9638.00
2023-05-14T12:04:12.288Z,8763.00
2023-05-14T12:05:12.221Z,8535.00
2023-05-14T12:06:12.259Z,7993.00
2023-05-14T12:07:12.176Z,7849.00
2023-05-14T12:08:12.168Z,7308.00
2023-05-14T12:09:12.201Z,6468.00
2023-05-14T12:10:12.153Z,6320.00
2023-05-14T12:11:12.296Z,6138.00
2023-05-14T12:12:12.157Z,6149.00
2023-05-14T12:13:12.105Z,6394.00
2023-05-14T12:14:12.125Z,6747.00
2023-05-14T12:15:12.129Z,7159.00
2023-05-14T12:16:12.183Z,7322.00
2023-05-14T12:17:12.063Z,7435.00
2023-05-14T12:18:23.491Z,6926.00
2023-05-14T12:19:12.050Z,6211.00
2023-05-14T12:20:12.061Z,5829.00
2023-05-14T12:21:12.036Z,5319.00
2023-05-14T12:22:12.065Z,4893.00
2023-05-14T12:23:11.993Z,4270.00
2023-05-14T12:24:11.960Z,3916.00
2023-05-14T12:25:11.989Z,3611.00
2023-05-14T12:26:11.951Z,3403.00